createdAt,value
2023-02-27T00:00:36.246Z,101860.00
2023-02-27T00:05:41.368Z,101835.81
2023-02-27T00:10:44.247Z,101842.72
2023-02-27T00:15:49.835Z,101848.91
2023-02-27T00:20:53.000Z,101856.84
2023-02-27T00:25:55.972Z,101883.19
2023-02-27T00:30:59.108Z,101880.47
2023-02-27T00:36:03.470Z,101882.34
2023-02-27T00:41:06.860Z,101863.97
2023-02-27T00:46:10.609Z,101876.22
2023-02-27T00:51:13.721Z,101862.84
2023-02-27T00:56:16.660Z,101880.19
2023-02-27T01:01:20.836Z,101867.91
2023-02-27T01:17:02.249Z,101843.84
2023-02-27T01:22:05.154Z,101849.75
2023-02-27T01:27:08.196Z,101847.94
2023-02-27T01:32:13.269Z,101862.22
2023-02-27T01:37:16.573Z,101864.56
2023-02-27T01:42:28.968Z,101871.69
2023-02-27T01:47:33.138Z,101863.53
2023-02-27T01:52:37.658Z,101876.22
2023-02-27T01:57:43.993Z,101852.09
2023-02-27T02:03:15.982Z,101862.31
2023-02-27T02:08:21.562Z,101880.38
2023-02-27T02:13:25.550Z,101849.13
2023-02-27T02:19:08.803Z,101875.84
2023-02-27T02:24:40.703Z,101862.28
2023-02-27T02:30:03.900Z,101859.41
2023-02-27T02:35:09.997Z,101875.31
2023-02-27T02:40:20.870Z,101870.94
2023-02-27T02:45:34.046Z,101882.44
2023-02-27T02:50:42.476Z,101885.25
2023-02-27T02:55:55.582Z,101888.91
2023-02-27T03:01:16.183Z,101881.38
2023-02-27T03:06:33.311Z,101883.75
2023-02-27T03:11:41.732Z,101898.66
2023-02-27T03:16:51.542Z,101896.97
2023-02-27T03:22:11.733Z,101905.47
2023-02-27T03:27:17.179Z,101927.34
2023-02-27T03:32:47.002Z,101939.31
2023-02-27T03:38:05.507Z,101934.47
2023-02-27T03:43:27.105Z,101919.19
2023-02-27T03:48:31.696Z,101912.53
2023-02-27T03:54:00.745Z,101923.16
2023-02-27T03:59:04.498Z,101926.69
2023-02-27T04:04:11.640Z,101954.13
2023-02-27T04:09:54.348Z,101932.97
2023-02-27T04:15:09.664Z,101947.28
2023-02-27T04:20:30.568Z,101966.72
2023-02-27T04:26:12.357Z,101975.78
2023-02-27T04:31:46.160Z,101991.66
2023-02-27T04:36:58.331Z,101991.72
2023-02-27T04:42:13.577Z,101984.13
2023-02-27T04:47:19.598Z,102002.03
2023-02-27T04:52:30.496Z,101987.19
2023-02-27T04:57:41.594Z,102018.09
2023-02-27T05:02:55.073Z,102027.81
2023-02-27T05:08:04.447Z,102026.84
2023-02-27T05:13:27.485Z,102035.72
2023-02-27T05:18:31.302Z,102033.03
2023-02-27T05:23:46.326Z,102058.31
2023-02-27T05:29:01.494Z,102041.50
2023-02-27T05:34:24.693Z,102039.53
2023-02-27T05:39:31.005Z,102034.09
2023-02-27T05:44:56.569Z,102043.22
2023-02-27T05:50:09.931Z,102035.84
2023-02-27T05:55:37.152Z,102023.09
2023-02-27T06:00:44.970Z,102024.44
2023-02-27T06:05:50.148Z,102022.56
2023-02-27T06:10:55.538Z,102024.88
2023-02-27T06:15:58.706Z,102021.72
2023-02-27T06:21:01.615Z,102025.63
2023-02-27T06:26:04.959Z,102024.47
2023-02-27T06:38:19.707Z,102025.94
2023-02-27T06:43:23.609Z,102033.53
2023-02-27T06:48:28.406Z,102032.03
2023-02-27T06:53:31.780Z,102022.97
2023-02-27T06:58:35.099Z,102015.69
2023-02-27T07:03:38.542Z,102009.78
2023-02-27T07:09:02.013Z,102028.19
2023-02-27T07:14:07.420Z,102036.00
2023-02-27T07:19:11.949Z,102026.75
2023-02-27T07:24:15.152Z,102049.09
2023-02-27T07:29:18.290Z,102033.19
2023-02-27T07:34:22.062Z,102038.97
2023-02-27T07:40:20.854Z,102046.91
2023-02-27T07:45:24.194Z,102054.03
2023-02-27T07:58:00.929Z,102036.13
2023-02-27T08:03:09.344Z,102043.72
2023-02-27T08:08:16.905Z,102051.97
2023-02-27T08:13:30.100Z,102041.03
2023-02-27T08:18:39.617Z,102052.94
2023-02-27T08:23:42.784Z,102041.44
2023-02-27T08:29:19.510Z,102055.47
2023-02-27T08:34:27.719Z,102054.44
2023-02-27T08:39:30.750Z,102048.16
2023-02-27T08:44:34.180Z,102056.38
2023-02-27T08:57:14.142Z,102029.78
2023-02-27T09:02:18.661Z,102015.72
2023-02-27T09:07:21.712Z,102025.16
2023-02-27T09:12:25.979Z,102020.03
2023-02-27T09:18:03.599Z,102034.16
2023-02-27T09:23:22.096Z,102029.38
2023-02-27T09:28:24.923Z,102034.78
2023-02-27T09:33:34.398Z,102005.31
2023-02-27T09:38:40.982Z,102018.41
2023-02-27T09:43:48.604Z,102008.84
2023-02-27T09:48:55.154Z,101994.03
2023-02-27T09:54:01.820Z,102002.66
2023-02-27T09:59:13.508Z,102018.00
2023-02-27T10:04:40.962Z,102001.59
2023-02-27T10:09:53.736Z,102019.56
2023-02-27T10:15:11.493Z,102031.06
2023-02-27T10:20:29.061Z,102021.50
2023-02-27T10:25:39.903Z,102017.00
2023-02-27T10:30:49.192Z,102018.97
2023-02-27T10:35:54.134Z,102017.72
2023-02-27T10:40:59.604Z,102017.63
2023-02-27T10:46:07.693Z,102004.03
2023-02-27T10:51:27.772Z,102012.03
2023-02-27T10:56:33.150Z,102005.13
2023-02-27T11:01:58.272Z,101998.16
2023-02-27T11:07:07.666Z,101997.22
2023-02-27T11:12:33.623Z,102008.69
2023-02-27T11:17:37.431Z,101995.47
2023-02-27T11:22:42.637Z,101995.16
2023-02-27T11:27:50.177Z,101987.22
2023-02-27T11:32:56.680Z,101985.16
2023-02-27T11:38:20.391Z,101983.97
2023-02-27T11:43:33.534Z,101993.81
2023-02-27T11:49:19.205Z,101998.06
2023-02-27T11:54:44.728Z,101984.28
2023-02-27T12:00:43.662Z,101995.56
2023-02-27T12:06:05.861Z,101994.16
2023-02-27T12:11:36.477Z,101977.19
2023-02-27T12:17:00.115Z,101963.06
2023-02-27T12:22:10.166Z,101957.03
2023-02-27T12:27:38.618Z,101969.16
2023-02-27T12:32:49.905Z,101955.72
2023-02-27T12:37:53.729Z,101949.16
2023-02-27T12:43:10.662Z,101948.97
2023-02-27T12:48:28.876Z,101944.53
2023-02-27T12:54:01.362Z,101963.56
2023-02-27T12:59:18.536Z,101990.28
2023-02-27T13:04:42.982Z,101995.03
2023-02-27T13:09:57.653Z,102000.34
2023-02-27T13:15:06.771Z,101993.06
2023-02-27T13:20:09.531Z,102006.75
2023-02-27T13:25:15.898Z,101993.25
2023-02-27T13:30:25.010Z,102016.09
2023-02-27T13:35:36.444Z,102007.31
2023-02-27T13:40:41.591Z,101997.28
2023-02-27T13:45:51.005Z,102001.34
2023-02-27T13:50:53.947Z,101982.53
2023-02-27T13:56:21.030Z,101979.78
2023-02-27T14:01:28.703Z,101983.75
2023-02-27T14:06:32.285Z,101969.13
2023-02-27T14:11:40.229Z,101971.63
2023-02-27T14:16:48.524Z,101968.00
2023-02-27T14:22:03.395Z,101959.97
2023-02-27T14:27:27.908Z,101981.38
2023-02-27T14:32:34.505Z,101970.16
2023-02-27T14:37:37.609Z,101974.44
2023-02-27T14:42:54.763Z,101972.78
2023-02-27T14:47:59.171Z,101977.03
2023-02-27T14:53:02.362Z,101970.94
2023-02-27T14:58:08.327Z,101965.97
2023-02-27T15:03:19.999Z,101970.81
2023-02-27T15:08:27.017Z,101949.28
2023-02-27T15:13:33.669Z,101977.44
2023-02-27T15:18:40.634Z,101952.81
2023-02-27T15:23:44.045Z,101983.38
2023-02-27T15:28:49.127Z,101970.06
2023-02-27T15:33:52.366Z,101960.28
2023-02-27T15:39:19.397Z,101967.06
2023-02-27T15:44:27.621Z,101965.16
2023-02-27T15:49:30.964Z,101937.34
2023-02-27T15:54:35.559Z,101969.16
2023-02-27T15:59:42.865Z,101974.31
2023-02-27T16:04:47.228Z,101960.91
2023-02-27T16:10:08.278Z,101970.88
2023-02-27T16:15:21.276Z,101955.03
2023-02-27T16:20:55.304Z,101952.97
2023-02-27T16:26:06.282Z,101950.03
2023-02-27T16:31:31.143Z,101947.38
2023-02-27T16:36:34.186Z,101951.13
2023-02-27T16:41:37.097Z,101921.38
2023-02-27T16:46:40.090Z,101919.16
2023-02-27T16:51:42.983Z,101952.09
2023-02-27T16:56:47.564Z,101933.94
2023-02-27T17:01:50.709Z,101934.34
2023-02-27T17:06:54.745Z,101933.28
2023-02-27T17:11:58.313Z,101922.09
2023-02-27T17:17:01.538Z,101908.06
2023-02-27T17:22:04.495Z,101902.97
2023-02-27T17:27:07.290Z,101900.97
2023-02-27T17:32:10.325Z,101921.16
2023-02-27T17:37:13.340Z,101905.50
2023-02-27T17:42:19.794Z,101915.63
2023-02-27T17:47:22.821Z,101899.28
2023-02-27T17:52:26.070Z,101903.97
2023-02-27T17:57:29.327Z,101908.47
2023-02-27T18:02:32.880Z,101899.00
2023-02-27T18:07:35.736Z,101904.03
2023-02-27T18:12:38.739Z,101896.47
2023-02-27T18:17:44.280Z,101894.41
2023-02-27T18:22:47.521Z,101860.75
2023-02-27T18:27:51.533Z,101883.09
2023-02-27T18:32:57.431Z,101871.38
2023-02-27T18:38:02.589Z,101877.00
2023-02-27T18:43:05.595Z,101883.06
2023-02-27T18:48:08.467Z,101863.13
2023-02-27T18:53:11.433Z,101874.06
2023-02-27T18:58:14.379Z,101852.22
2023-02-27T19:03:17.293Z,101880.88
2023-02-27T19:08:20.488Z,101871.84
2023-02-27T19:13:23.945Z,101861.44
2023-02-27T19:18:27.065Z,101843.69
2023-02-27T19:23:30.329Z,101846.28
2023-02-27T19:28:34.092Z,101858.84
2023-02-27T19:33:36.976Z,101839.66
2023-02-27T19:38:40.410Z,101864.69
2023-02-27T19:43:43.896Z,101859.72
2023-02-27T19:48:47.514Z,101864.16
2023-02-27T19:53:50.406Z,101847.22
2023-02-27T19:58:54.480Z,101860.78
2023-02-27T20:03:57.925Z,101850.97
2023-02-27T20:09:01.287Z,101855.94
2023-02-27T20:14:04.893Z,101858.84
2023-02-27T20:19:10.537Z,101882.16
2023-02-27T20:24:14.950Z,101903.41
2023-02-27T20:29:24.321Z,101865.50
2023-02-27T20:34:27.316Z,101851.47
2023-02-27T20:39:30.252Z,101843.81
2023-02-27T20:44:33.195Z,101865.84
2023-02-27T20:49:36.769Z,101860.44
2023-02-27T20:54:39.856Z,101869.28
2023-02-27T20:59:42.681Z,101848.78
2023-02-27T21:04:47.649Z,101814.84
2023-02-27T21:09:51.450Z,101792.47
2023-02-27T21:14:54.512Z,101794.44
2023-02-27T21:19:57.173Z,101796.09
2023-02-27T21:25:00.232Z,101778.28
2023-02-27T21:30:03.189Z,101805.63
2023-02-27T21:35:07.135Z,101774.91
2023-02-27T21:40:11.068Z,101787.69
2023-02-27T21:45:14.304Z,101789.31
2023-02-27T21:50:18.595Z,101773.53
2023-02-27T21:55:21.491Z,101775.78
2023-02-27T22:00:26.882Z,101795.59
2023-02-27T22:05:30.071Z,101769.66
2023-02-27T22:10:48.418Z,101779.41
2023-02-27T22:15:51.585Z,101780.81
2023-02-27T22:20:54.503Z,101782.50
2023-02-27T22:26:05.377Z,101787.34
2023-02-27T22:31:10.929Z,101785.38
2023-02-27T22:36:20.561Z,101814.16
2023-02-27T22:41:26.853Z,101818.88
2023-02-27T22:46:35.588Z,101820.75
2023-02-27T22:51:38.636Z,101798.75
2023-02-27T22:56:42.314Z,101788.16
2023-02-27T23:01:45.361Z,101788.94
2023-02-27T23:06:50.436Z,101791.28
2023-02-27T23:11:55.136Z,101807.25
2023-02-27T23:16:59.244Z,101778.53
2023-02-27T23:22:02.116Z,101747.72
2023-02-27T23:27:23.402Z,101736.38
2023-02-27T23:32:28.309Z,101775.81
2023-02-27T23:37:31.196Z,101758.09
2023-02-27T23:42:34.531Z,101798.63
2023-02-27T23:47:48.956Z,101777.31
2023-02-27T23:52:53.750Z,101797.53
2023-02-27T23:57:59.985Z,101783.56
